Hlavní strana
METAR-TAF:

METAR-TAF

Letiště :

Flemingsburg, Kentucky, Spojené státy americké

zeměpisná šířka: 38-32-30N, zeměpisná délka: 083-44-36W, výška: 278 m

Aktuální stav počasí

Zpráva byla vytvořena před 28 minutami, v 08:15 UTC
Severoseverovýchodní vítr 7 kt
Teplota -5°C
Vlhkost vzduchu 63%
Tlak 1035 hPa
Viditelnost: 16.1 km
Zataženo ve výšce 3100 ft

METAR: KFGX 210815Z AUTO 02007KT 10SM OVC031 M05/M11 A3056 RMK AO2 T10501109

Čas: 03:43 (08:43 UTC)


TAF: chybějící

Stav a předpovědi počasí z více než 4 000 letišť (zprávy METAR a TAF).

Červené a žluté tečky na mapě představují dostupné meteorologické stanice.

Když kurzor umístíte na tečku, zobrazí se název stanice.

Pak kliknutím zobrazíte stav a předpověď počasí.

Chcete-li změnit mapu, kliknutím na zelené tlačítko se znaménkem +mapu přiblížíte, kliknutím na zelené tlačítko se znaménkem – mapu oddálíte a kliknutím na zelené šipky přejdete na sousední mapy.


METAR-TAF: